Terminal Aerodrome Forecast
Issued by NWS North Platte, NE

Home | Current Version | Previous Version | Graphics & Text | Print | Product List | Glossary On
Versions: 1 2 3 4 5 6 7 8 9 10 11 12 13 14 15 16
723
FTUS43 KLBF 211720
TAFVTN
TAF
KVTN 211720Z 2118/2218 15020G28KT P6SM SCT015 OVC020
     FM220200 15017G24KT P6SM OVC015
     FM220900 16015G22KT P6SM VCSH OVC010
     FM221600 18018G24KT P6SM OVC015=

USA.gov is the U.S. government's official web portal to all federal, state and local government web resources and services.